sensor_id;sensor_type;location;lat;lon;timestamp;P1;durP1;ratioP1;P2;durP2;ratioP2
29686;SDS011;16599;47.078;15.536;2022-10-26T00:03:29;15.52;;;3.35;;
29686;SDS011;16599;47.078;15.536;2022-10-26T00:06:01;8.07;;;3.15;;
29686;SDS011;16599;47.078;15.536;2022-10-26T00:08:29;6.20;;;3.25;;
29686;SDS011;16599;47.078;15.536;2022-10-26T00:10:56;9.57;;;2.90;;
29686;SDS011;16599;47.078;15.536;2022-10-26T00:13:23;5.80;;;2.60;;
29686;SDS011;16599;47.078;15.536;2022-10-26T00:15:50;6.35;;;2.50;;
29686;SDS011;16599;47.078;15.536;2022-10-26T00:18:17;5.75;;;2.75;;
29686;SDS011;16599;47.078;15.536;2022-10-26T00:20:44;13.95;;;2.72;;
29686;SDS011;16599;47.078;15.536;2022-10-26T00:23:10;5.65;;;2.53;;
29686;SDS011;16599;47.078;15.536;2022-10-26T00:25:37;8.02;;;2.50;;
29686;SDS011;16599;47.078;15.536;2022-10-26T00:28:04;10.63;;;2.85;;
29686;SDS011;16599;47.078;15.536;2022-10-26T00:30:31;5.38;;;2.50;;
29686;SDS011;16599;47.078;15.536;2022-10-26T00:32:58;6.18;;;3.15;;
29686;SDS011;16599;47.078;15.536;2022-10-26T00:35:24;8.15;;;3.00;;
29686;SDS011;16599;47.078;15.536;2022-10-26T00:38:10;8.52;;;3.15;;
29686;SDS011;16599;47.078;15.536;2022-10-26T00:40:37;8.20;;;3.00;;
29686;SDS011;16599;47.078;15.536;2022-10-26T00:43:07;9.13;;;3.30;;
29686;SDS011;16599;47.078;15.536;2022-10-26T00:45:59;11.07;;;2.90;;
29686;SDS011;16599;47.078;15.536;2022-10-26T00:48:28;10.75;;;3.38;;
29686;SDS011;16599;47.078;15.536;2022-10-26T00:50:59;10.25;;;2.63;;
29686;SDS011;16599;47.078;15.536;2022-10-26T00:53:29;6.28;;;2.88;;
29686;SDS011;16599;47.078;15.536;2022-10-26T00:55:57;7.13;;;2.30;;
29686;SDS011;16599;47.078;15.536;2022-10-26T00:58:26;6.53;;;2.78;;
29686;SDS011;16599;47.078;15.536;2022-10-26T01:00:53;7.65;;;2.95;;
29686;SDS011;16599;47.078;15.536;2022-10-26T01:03:20;9.73;;;3.15;;
29686;SDS011;16599;47.078;15.536;2022-10-26T01:05:50;12.07;;;3.42;;
29686;SDS011;16599;47.078;15.536;2022-10-26T01:08:20;8.60;;;3.33;;
29686;SDS011;16599;47.078;15.536;2022-10-26T01:10:48;4.30;;;3.10;;
29686;SDS011;16599;47.078;15.536;2022-10-26T01:13:15;7.32;;;3.22;;
29686;SDS011;16599;47.078;15.536;2022-10-26T01:15:48;11.15;;;3.50;;
29686;SDS011;16599;47.078;15.536;2022-10-26T01:18:29;6.90;;;3.30;;
29686;SDS011;16599;47.078;15.536;2022-10-26T01:35:51;8.70;;;3.45;;
29686;SDS011;16599;47.078;15.536;2022-10-26T01:41:16;6.05;;;3.20;;
29686;SDS011;16599;47.078;15.536;2022-10-26T01:44:02;6.60;;;3.13;;
29686;SDS011;16599;47.078;15.536;2022-10-26T01:46:40;3.75;;;2.80;;
29686;SDS011;16599;47.078;15.536;2022-10-26T01:49:11;9.85;;;3.70;;
29686;SDS011;16599;47.078;15.536;2022-10-26T01:51:40;8.50;;;3.05;;
29686;SDS011;16599;47.078;15.536;2022-10-26T01:54:09;7.72;;;3.88;;
29686;SDS011;16599;47.078;15.536;2022-10-26T01:56:39;12.65;;;2.80;;
29686;SDS011;16599;47.078;15.536;2022-10-26T01:59:16;6.28;;;3.30;;
29686;SDS011;16599;47.078;15.536;2022-10-26T02:07:33;11.50;;;2.70;;
29686;SDS011;16599;47.078;15.536;2022-10-26T02:12:57;4.10;;;2.83;;
29686;SDS011;16599;47.078;15.536;2022-10-26T02:15:33;5.22;;;3.15;;
29686;SDS011;16599;47.078;15.536;2022-10-26T02:18:45;19.02;;;4.85;;
29686;SDS011;16599;47.078;15.536;2022-10-26T02:21:11;11.77;;;3.97;;
29686;SDS011;16599;47.078;15.536;2022-10-26T02:23:43;7.45;;;3.63;;
29686;SDS011;16599;47.078;15.536;2022-10-26T02:26:12;9.65;;;3.10;;
29686;SDS011;16599;47.078;15.536;2022-10-26T02:28:46;9.50;;;3.67;;
29686;SDS011;16599;47.078;15.536;2022-10-26T02:31:16;5.50;;;3.25;;
29686;SDS011;16599;47.078;15.536;2022-10-26T02:33:45;56.35;;;4.50;;
29686;SDS011;16599;47.078;15.536;2022-10-26T02:36:21;13.68;;;4.10;;
29686;SDS011;16599;47.078;15.536;2022-10-26T02:38:52;12.50;;;4.30;;
29686;SDS011;16599;47.078;15.536;2022-10-26T02:41:21;20.17;;;4.88;;
29686;SDS011;16599;47.078;15.536;2022-10-26T02:43:56;18.80;;;4.85;;
29686;SDS011;16599;47.078;15.536;2022-10-26T02:46:28;6.82;;;3.88;;
29686;SDS011;16599;47.078;15.536;2022-10-26T02:48:55;16.10;;;4.32;;
29686;SDS011;16599;47.078;15.536;2022-10-26T02:56:49;14.45;;;3.55;;
29686;SDS011;16599;47.078;15.536;2022-10-26T02:59:21;7.03;;;2.97;;
29686;SDS011;16599;47.078;15.536;2022-10-26T03:01:50;6.03;;;3.35;;
29686;SDS011;16599;47.078;15.536;2022-10-26T03:04:18;6.18;;;3.30;;
29686;SDS011;16599;47.078;15.536;2022-10-26T03:06:52;5.18;;;3.42;;
29686;SDS011;16599;47.078;15.536;2022-10-26T03:09:19;7.22;;;3.83;;
29686;SDS011;16599;47.078;15.536;2022-10-26T03:11:50;18.43;;;13.13;;
29686;SDS011;16599;47.078;15.536;2022-10-26T03:14:18;16.23;;;8.60;;
29686;SDS011;16599;47.078;15.536;2022-10-26T03:16:45;12.63;;;5.35;;
29686;SDS011;16599;47.078;15.536;2022-10-26T03:19:12;8.80;;;4.90;;
29686;SDS011;16599;47.078;15.536;2022-10-26T03:21:39;11.10;;;5.30;;
29686;SDS011;16599;47.078;15.536;2022-10-26T03:24:07;6.97;;;4.57;;
29686;SDS011;16599;47.078;15.536;2022-10-26T03:26:35;14.40;;;4.93;;
29686;SDS011;16599;47.078;15.536;2022-10-26T03:29:01;22.35;;;4.45;;
29686;SDS011;16599;47.078;15.536;2022-10-26T03:31:28;11.02;;;4.63;;
29686;SDS011;16599;47.078;15.536;2022-10-26T03:33:55;9.70;;;3.90;;
29686;SDS011;16599;47.078;15.536;2022-10-26T03:36:22;10.10;;;3.58;;
29686;SDS011;16599;47.078;15.536;2022-10-26T03:38:48;11.77;;;4.43;;
29686;SDS011;16599;47.078;15.536;2022-10-26T03:41:15;9.75;;;4.22;;
29686;SDS011;16599;47.078;15.536;2022-10-26T03:43:42;7.20;;;3.95;;
29686;SDS011;16599;47.078;15.536;2022-10-26T03:46:09;5.60;;;3.85;;
29686;SDS011;16599;47.078;15.536;2022-10-26T03:48:36;14.73;;;4.45;;
29686;SDS011;16599;47.078;15.536;2022-10-26T03:51:02;17.00;;;4.28;;
29686;SDS011;16599;47.078;15.536;2022-10-26T03:53:29;8.80;;;4.28;;
29686;SDS011;16599;47.078;15.536;2022-10-26T03:55:56;15.65;;;5.55;;
29686;SDS011;16599;47.078;15.536;2022-10-26T03:58:23;54.17;;;6.30;;
29686;SDS011;16599;47.078;15.536;2022-10-26T04:00:50;20.95;;;7.15;;
29686;SDS011;16599;47.078;15.536;2022-10-26T04:03:17;13.75;;;6.00;;
29686;SDS011;16599;47.078;15.536;2022-10-26T04:05:44;18.45;;;5.30;;
29686;SDS011;16599;47.078;15.536;2022-10-26T04:08:11;12.98;;;4.22;;
29686;SDS011;16599;47.078;15.536;2022-10-26T04:10:37;10.40;;;3.53;;
29686;SDS011;16599;47.078;15.536;2022-10-26T04:13:04;8.32;;;4.50;;
29686;SDS011;16599;47.078;15.536;2022-10-26T04:15:31;6.93;;;4.93;;
29686;SDS011;16599;47.078;15.536;2022-10-26T04:17:59;10.52;;;4.45;;
29686;SDS011;16599;47.078;15.536;2022-10-26T04:20:27;10.82;;;3.70;;
29686;SDS011;16599;47.078;15.536;2022-10-26T04:22:59;13.82;;;3.72;;
29686;SDS011;16599;47.078;15.536;2022-10-26T04:25:28;11.82;;;4.40;;
29686;SDS011;16599;47.078;15.536;2022-10-26T04:27:59;9.90;;;3.78;;
29686;SDS011;16599;47.078;15.536;2022-10-26T04:30:26;14.75;;;4.80;;
29686;SDS011;16599;47.078;15.536;2022-10-26T04:32:53;5.15;;;3.60;;
29686;SDS011;16599;47.078;15.536;2022-10-26T04:35:20;11.82;;;4.55;;
29686;SDS011;16599;47.078;15.536;2022-10-26T04:37:47;7.97;;;3.35;;
29686;SDS011;16599;47.078;15.536;2022-10-26T04:40:14;6.57;;;3.60;;
29686;SDS011;16599;47.078;15.536;2022-10-26T04:42:44;11.40;;;4.07;;
29686;SDS011;16599;47.078;15.536;2022-10-26T04:45:13;6.93;;;3.45;;
29686;SDS011;16599;47.078;15.536;2022-10-26T04:47:41;10.02;;;3.38;;
29686;SDS011;16599;47.078;15.536;2022-10-26T04:50:09;8.30;;;3.35;;
29686;SDS011;16599;47.078;15.536;2022-10-26T04:52:37;10.57;;;3.22;;
29686;SDS011;16599;47.078;15.536;2022-10-26T04:55:04;6.32;;;3.08;;
29686;SDS011;16599;47.078;15.536;2022-10-26T04:57:32;8.82;;;3.75;;
29686;SDS011;16599;47.078;15.536;2022-10-26T05:00:00;8.10;;;4.32;;
29686;SDS011;16599;47.078;15.536;2022-10-26T05:02:28;4.97;;;3.63;;
29686;SDS011;16599;47.078;15.536;2022-10-26T05:04:55;9.77;;;4.05;;
29686;SDS011;16599;47.078;15.536;2022-10-26T05:07:22;14.75;;;4.30;;
29686;SDS011;16599;47.078;15.536;2022-10-26T05:09:49;6.78;;;3.20;;
29686;SDS011;16599;47.078;15.536;2022-10-26T05:12:16;6.05;;;3.30;;
29686;SDS011;16599;47.078;15.536;2022-10-26T05:14:42;16.67;;;3.90;;
29686;SDS011;16599;47.078;15.536;2022-10-26T05:17:09;5.68;;;3.33;;
29686;SDS011;16599;47.078;15.536;2022-10-26T05:19:36;7.20;;;4.38;;
29686;SDS011;16599;47.078;15.536;2022-10-26T05:22:03;4.93;;;3.60;;
29686;SDS011;16599;47.078;15.536;2022-10-26T05:24:30;4.55;;;3.20;;
29686;SDS011;16599;47.078;15.536;2022-10-26T05:26:57;13.80;;;3.90;;
29686;SDS011;16599;47.078;15.536;2022-10-26T05:29:23;5.60;;;3.17;;
29686;SDS011;16599;47.078;15.536;2022-10-26T05:31:50;11.32;;;3.95;;
29686;SDS011;16599;47.078;15.536;2022-10-26T05:34:17;7.32;;;3.92;;
29686;SDS011;16599;47.078;15.536;2022-10-26T05:36:44;10.15;;;4.05;;
29686;SDS011;16599;47.078;15.536;2022-10-26T05:39:11;9.50;;;4.10;;
29686;SDS011;16599;47.078;15.536;2022-10-26T05:41:37;10.40;;;4.28;;
29686;SDS011;16599;47.078;15.536;2022-10-26T05:44:04;11.93;;;4.03;;
29686;SDS011;16599;47.078;15.536;2022-10-26T05:46:31;10.98;;;9.93;;
29686;SDS011;16599;47.078;15.536;2022-10-26T05:48:58;6.93;;;3.97;;
29686;SDS011;16599;47.078;15.536;2022-10-26T05:51:24;7.20;;;3.95;;
29686;SDS011;16599;47.078;15.536;2022-10-26T05:53:51;10.38;;;3.78;;
29686;SDS011;16599;47.078;15.536;2022-10-26T05:56:37;11.90;;;5.13;;
29686;SDS011;16599;47.078;15.536;2022-10-26T05:59:09;12.52;;;4.63;;
29686;SDS011;16599;47.078;15.536;2022-10-26T06:01:48;6.35;;;3.70;;
29686;SDS011;16599;47.078;15.536;2022-10-26T06:04:36;10.80;;;4.70;;
29686;SDS011;16599;47.078;15.536;2022-10-26T06:07:11;6.28;;;3.63;;
29686;SDS011;16599;47.078;15.536;2022-10-26T06:09:39;10.32;;;3.60;;
29686;SDS011;16599;47.078;15.536;2022-10-26T06:12:07;9.30;;;3.85;;
29686;SDS011;16599;47.078;15.536;2022-10-26T06:14:38;5.68;;;3.63;;
29686;SDS011;16599;47.078;15.536;2022-10-26T06:22:27;10.00;;;4.55;;
29686;SDS011;16599;47.078;15.536;2022-10-26T06:30:06;9.43;;;3.67;;
29686;SDS011;16599;47.078;15.536;2022-10-26T06:32:37;7.50;;;3.47;;
29686;SDS011;16599;47.078;15.536;2022-10-26T06:37:51;7.38;;;3.60;;
29686;SDS011;16599;47.078;15.536;2022-10-26T06:40:19;11.95;;;4.72;;
29686;SDS011;16599;47.078;15.536;2022-10-26T06:42:48;8.20;;;5.50;;
29686;SDS011;16599;47.078;15.536;2022-10-26T06:45:15;11.30;;;5.88;;
29686;SDS011;16599;47.078;15.536;2022-10-26T06:47:53;21.65;;;6.93;;
29686;SDS011;16599;47.078;15.536;2022-10-26T06:55:58;14.15;;;6.95;;
29686;SDS011;16599;47.078;15.536;2022-10-26T06:58:29;17.30;;;10.30;;
29686;SDS011;16599;47.078;15.536;2022-10-26T07:01:00;17.17;;;11.13;;
29686;SDS011;16599;47.078;15.536;2022-10-26T07:03:27;16.25;;;10.52;;
29686;SDS011;16599;47.078;15.536;2022-10-26T07:05:54;18.08;;;9.80;;
29686;SDS011;16599;47.078;15.536;2022-10-26T07:08:21;16.05;;;9.50;;
29686;SDS011;16599;47.078;15.536;2022-10-26T07:10:47;25.00;;;12.32;;
29686;SDS011;16599;47.078;15.536;2022-10-26T07:13:14;23.20;;;11.63;;
29686;SDS011;16599;47.078;15.536;2022-10-26T07:15:41;21.48;;;11.85;;
29686;SDS011;16599;47.078;15.536;2022-10-26T07:18:08;30.52;;;13.63;;
29686;SDS011;16599;47.078;15.536;2022-10-26T07:20:36;20.42;;;12.82;;
29686;SDS011;16599;47.078;15.536;2022-10-26T07:23:05;25.52;;;13.40;;
29686;SDS011;16599;47.078;15.536;2022-10-26T07:25:33;20.83;;;12.65;;
29686;SDS011;16599;47.078;15.536;2022-10-26T07:28:04;25.30;;;13.35;;
29686;SDS011;16599;47.078;15.536;2022-10-26T07:30:32;18.02;;;10.85;;
29686;SDS011;16599;47.078;15.536;2022-10-26T07:33:03;23.77;;;11.75;;
29686;SDS011;16599;47.078;15.536;2022-10-26T07:35:34;29.70;;;12.48;;
29686;SDS011;16599;47.078;15.536;2022-10-26T07:38:01;25.45;;;12.00;;
29686;SDS011;16599;47.078;15.536;2022-10-26T07:40:29;22.48;;;11.85;;
29686;SDS011;16599;47.078;15.536;2022-10-26T07:42:57;26.42;;;12.65;;
29686;SDS011;16599;47.078;15.536;2022-10-26T07:45:25;32.38;;;11.90;;
29686;SDS011;16599;47.078;15.536;2022-10-26T07:47:53;26.08;;;11.43;;
29686;SDS011;16599;47.078;15.536;2022-10-26T07:50:20;25.75;;;12.20;;
29686;SDS011;16599;47.078;15.536;2022-10-26T07:52:48;22.60;;;12.27;;
29686;SDS011;16599;47.078;15.536;2022-10-26T07:55:16;25.65;;;12.50;;
29686;SDS011;16599;47.078;15.536;2022-10-26T07:57:43;23.15;;;11.95;;
29686;SDS011;16599;47.078;15.536;2022-10-26T08:00:13;26.88;;;12.18;;
29686;SDS011;16599;47.078;15.536;2022-10-26T08:02:41;27.27;;;11.93;;
29686;SDS011;16599;47.078;15.536;2022-10-26T08:05:08;21.70;;;12.35;;
29686;SDS011;16599;47.078;15.536;2022-10-26T08:07:39;19.75;;;11.25;;
29686;SDS011;16599;47.078;15.536;2022-10-26T08:10:07;21.92;;;11.52;;
29686;SDS011;16599;47.078;15.536;2022-10-26T08:12:34;24.60;;;12.43;;
29686;SDS011;16599;47.078;15.536;2022-10-26T08:15:01;21.13;;;12.10;;
29686;SDS011;16599;47.078;15.536;2022-10-26T08:17:29;23.25;;;11.55;;
29686;SDS011;16599;47.078;15.536;2022-10-26T08:19:55;19.90;;;11.60;;
29686;SDS011;16599;47.078;15.536;2022-10-26T08:22:23;21.58;;;13.13;;
29686;SDS011;16599;47.078;15.536;2022-10-26T08:24:49;60.03;;;30.25;;
29686;SDS011;16599;47.078;15.536;2022-10-26T08:27:16;29.13;;;15.85;;
29686;SDS011;16599;47.078;15.536;2022-10-26T08:29:43;23.70;;;13.43;;
29686;SDS011;16599;47.078;15.536;2022-10-26T08:32:10;23.60;;;12.70;;
29686;SDS011;16599;47.078;15.536;2022-10-26T08:34:37;22.85;;;12.35;;
29686;SDS011;16599;47.078;15.536;2022-10-26T08:37:03;19.08;;;11.35;;
29686;SDS011;16599;47.078;15.536;2022-10-26T08:39:30;20.73;;;11.30;;
29686;SDS011;16599;47.078;15.536;2022-10-26T08:42:17;20.85;;;10.73;;
29686;SDS011;16599;47.078;15.536;2022-10-26T08:47:45;20.90;;;11.90;;
29686;SDS011;16599;47.078;15.536;2022-10-26T08:50:13;21.08;;;10.07;;
29686;SDS011;16599;47.078;15.536;2022-10-26T08:52:51;24.27;;;12.00;;
29686;SDS011;16599;47.078;15.536;2022-10-26T08:55:33;20.88;;;11.45;;
29686;SDS011;16599;47.078;15.536;2022-10-26T08:58:09;19.90;;;11.13;;
29686;SDS011;16599;47.078;15.536;2022-10-26T09:00:46;18.60;;;9.80;;
29686;SDS011;16599;47.078;15.536;2022-10-26T09:03:15;16.60;;;9.02;;
29686;SDS011;16599;47.078;15.536;2022-10-26T09:13:44;16.25;;;8.30;;
29686;SDS011;16599;47.078;15.536;2022-10-26T09:19:22;14.63;;;9.10;;
29686;SDS011;16599;47.078;15.536;2022-10-26T09:22:16;18.58;;;8.70;;
29686;SDS011;16599;47.078;15.536;2022-10-26T09:25:19;14.60;;;8.60;;
29686;SDS011;16599;47.078;15.536;2022-10-26T09:27:49;12.88;;;8.55;;
29686;SDS011;16599;47.078;15.536;2022-10-26T09:30:21;15.88;;;8.95;;
29686;SDS011;16599;47.078;15.536;2022-10-26T09:32:49;14.32;;;8.27;;
29686;SDS011;16599;47.078;15.536;2022-10-26T09:38:11;13.52;;;7.85;;
29686;SDS011;16599;47.078;15.536;2022-10-26T09:40:42;16.77;;;8.75;;
29686;SDS011;16599;47.078;15.536;2022-10-26T09:45:43;15.20;;;8.65;;
29686;SDS011;16599;47.078;15.536;2022-10-26T09:48:15;17.75;;;7.97;;
29686;SDS011;16599;47.078;15.536;2022-10-26T09:51:04;16.25;;;8.13;;
29686;SDS011;16599;47.078;15.536;2022-10-26T09:53:31;21.30;;;7.80;;
29686;SDS011;16599;47.078;15.536;2022-10-26T09:56:00;12.38;;;6.88;;
29686;SDS011;16599;47.078;15.536;2022-10-26T09:58:31;18.67;;;8.15;;
29686;SDS011;16599;47.078;15.536;2022-10-26T10:01:34;12.90;;;7.35;;
29686;SDS011;16599;47.078;15.536;2022-10-26T10:06:37;10.88;;;7.40;;
29686;SDS011;16599;47.078;15.536;2022-10-26T10:09:06;15.23;;;7.75;;
29686;SDS011;16599;47.078;15.536;2022-10-26T10:11:37;16.65;;;8.30;;
29686;SDS011;16599;47.078;15.536;2022-10-26T10:14:07;13.73;;;8.18;;
29686;SDS011;16599;47.078;15.536;2022-10-26T10:16:38;15.10;;;7.75;;
29686;SDS011;16599;47.078;15.536;2022-10-26T10:19:09;15.32;;;7.65;;
29686;SDS011;16599;47.078;15.536;2022-10-26T10:21:53;15.32;;;8.40;;
29686;SDS011;16599;47.078;15.536;2022-10-26T10:24:23;15.00;;;7.38;;
29686;SDS011;16599;47.078;15.536;2022-10-26T10:29:43;13.65;;;8.07;;
29686;SDS011;16599;47.078;15.536;2022-10-26T10:37:47;9.32;;;6.10;;
29686;SDS011;16599;47.078;15.536;2022-10-26T10:40:18;12.98;;;6.47;;
29686;SDS011;16599;47.078;15.536;2022-10-26T10:42:49;11.15;;;6.45;;
29686;SDS011;16599;47.078;15.536;2022-10-26T10:45:20;14.90;;;6.43;;
29686;SDS011;16599;47.078;15.536;2022-10-26T10:48:02;13.57;;;6.28;;
29686;SDS011;16599;47.078;15.536;2022-10-26T10:50:49;10.30;;;5.75;;
29686;SDS011;16599;47.078;15.536;2022-10-26T10:56:22;13.63;;;6.45;;
29686;SDS011;16599;47.078;15.536;2022-10-26T11:06:51;9.52;;;5.60;;
29686;SDS011;16599;47.078;15.536;2022-10-26T11:09:25;8.95;;;4.25;;
29686;SDS011;16599;47.078;15.536;2022-10-26T11:11:56;7.45;;;4.68;;
29686;SDS011;16599;47.078;15.536;2022-10-26T11:14:39;9.75;;;4.18;;
29686;SDS011;16599;47.078;15.536;2022-10-26T11:17:19;6.97;;;4.05;;
29686;SDS011;16599;47.078;15.536;2022-10-26T11:23:10;9.38;;;4.38;;
29686;SDS011;16599;47.078;15.536;2022-10-26T11:25:43;6.82;;;3.10;;
29686;SDS011;16599;47.078;15.536;2022-10-26T11:28:19;4.15;;;2.67;;
29686;SDS011;16599;47.078;15.536;2022-10-26T11:31:30;5.18;;;1.90;;
29686;SDS011;16599;47.078;15.536;2022-10-26T11:34:12;5.20;;;2.53;;
29686;SDS011;16599;47.078;15.536;2022-10-26T11:36:53;6.22;;;1.92;;
29686;SDS011;16599;47.078;15.536;2022-10-26T11:42:34;7.82;;;2.70;;
29686;SDS011;16599;47.078;15.536;2022-10-26T11:50:44;6.32;;;3.10;;
29686;SDS011;16599;47.078;15.536;2022-10-26T11:53:15;8.18;;;3.15;;
29686;SDS011;16599;47.078;15.536;2022-10-26T11:55:48;4.32;;;2.70;;
29686;SDS011;16599;47.078;15.536;2022-10-26T11:58:18;5.22;;;2.50;;
29686;SDS011;16599;47.078;15.536;2022-10-26T12:00:50;5.65;;;2.70;;
29686;SDS011;16599;47.078;15.536;2022-10-26T12:05:53;7.72;;;2.55;;
29686;SDS011;16599;47.078;15.536;2022-10-26T12:08:30;6.68;;;2.78;;
29686;SDS011;16599;47.078;15.536;2022-10-26T12:11:13;4.68;;;2.33;;
29686;SDS011;16599;47.078;15.536;2022-10-26T12:13:46;6.93;;;2.60;;
29686;SDS011;16599;47.078;15.536;2022-10-26T12:21:51;4.72;;;2.63;;
29686;SDS011;16599;47.078;15.536;2022-10-26T12:29:37;5.45;;;2.42;;
29686;SDS011;16599;47.078;15.536;2022-10-26T12:34:57;6.22;;;2.22;;
29686;SDS011;16599;47.078;15.536;2022-10-26T12:37:30;5.82;;;2.70;;
29686;SDS011;16599;47.078;15.536;2022-10-26T12:45:39;8.30;;;2.78;;
29686;SDS011;16599;47.078;15.536;2022-10-26T12:48:24;7.95;;;3.30;;
29686;SDS011;16599;47.078;15.536;2022-10-26T12:51:42;6.30;;;3.65;;
29686;SDS011;16599;47.078;15.536;2022-10-26T12:56:54;9.98;;;3.60;;
29686;SDS011;16599;47.078;15.536;2022-10-26T13:05:23;8.13;;;5.07;;
29686;SDS011;16599;47.078;15.536;2022-10-26T13:08:05;9.07;;;4.05;;
29686;SDS011;16599;47.078;15.536;2022-10-26T13:10:35;9.75;;;4.03;;
29686;SDS011;16599;47.078;15.536;2022-10-26T13:13:05;7.57;;;3.97;;
29686;SDS011;16599;47.078;15.536;2022-10-26T13:15:50;9.43;;;4.88;;
29686;SDS011;16599;47.078;15.536;2022-10-26T13:18:19;9.55;;;4.60;;
29686;SDS011;16599;47.078;15.536;2022-10-26T13:21:06;7.80;;;4.05;;
29686;SDS011;16599;47.078;15.536;2022-10-26T13:23:38;10.23;;;4.55;;
29686;SDS011;16599;47.078;15.536;2022-10-26T13:26:15;13.98;;;5.22;;
29686;SDS011;16599;47.078;15.536;2022-10-26T13:28:48;8.10;;;5.00;;
29686;SDS011;16599;47.078;15.536;2022-10-26T13:31:50;8.85;;;4.93;;
29686;SDS011;16599;47.078;15.536;2022-10-26T13:36:39;10.48;;;4.70;;
29686;SDS011;16599;47.078;15.536;2022-10-26T13:41:41;8.60;;;4.45;;
29686;SDS011;16599;47.078;15.536;2022-10-26T13:44:13;7.82;;;4.57;;
29686;SDS011;16599;47.078;15.536;2022-10-26T13:46:53;8.73;;;4.45;;
29686;SDS011;16599;47.078;15.536;2022-10-26T13:49:26;16.02;;;5.47;;
29686;SDS011;16599;47.078;15.536;2022-10-26T13:51:59;10.13;;;4.38;;
29686;SDS011;16599;47.078;15.536;2022-10-26T13:54:34;13.15;;;7.13;;
29686;SDS011;16599;47.078;15.536;2022-10-26T13:57:10;11.75;;;5.80;;
29686;SDS011;16599;47.078;15.536;2022-10-26T13:59:43;11.77;;;5.00;;
29686;SDS011;16599;47.078;15.536;2022-10-26T14:02:25;10.63;;;4.97;;
29686;SDS011;16599;47.078;15.536;2022-10-26T14:04:59;13.02;;;5.68;;
29686;SDS011;16599;47.078;15.536;2022-10-26T14:07:38;12.13;;;5.35;;
29686;SDS011;16599;47.078;15.536;2022-10-26T14:10:30;11.93;;;4.55;;
29686;SDS011;16599;47.078;15.536;2022-10-26T14:13:01;11.80;;;5.05;;
29686;SDS011;16599;47.078;15.536;2022-10-26T14:15:34;16.95;;;4.63;;
29686;SDS011;16599;47.078;15.536;2022-10-26T14:18:02;16.15;;;6.90;;
29686;SDS011;16599;47.078;15.536;2022-10-26T14:20:30;16.55;;;8.80;;
29686;SDS011;16599;47.078;15.536;2022-10-26T14:22:57;15.00;;;6.95;;
29686;SDS011;16599;47.078;15.536;2022-10-26T14:25:26;17.88;;;9.57;;
29686;SDS011;16599;47.078;15.536;2022-10-26T14:28:26;23.13;;;8.10;;
29686;SDS011;16599;47.078;15.536;2022-10-26T14:31:13;8.57;;;6.00;;
29686;SDS011;16599;47.078;15.536;2022-10-26T14:33:47;11.05;;;6.88;;
29686;SDS011;16599;47.078;15.536;2022-10-26T14:36:14;10.23;;;4.85;;
29686;SDS011;16599;47.078;15.536;2022-10-26T14:38:46;14.98;;;5.88;;
29686;SDS011;16599;47.078;15.536;2022-10-26T14:41:18;16.08;;;6.10;;
29686;SDS011;16599;47.078;15.536;2022-10-26T14:43:47;12.25;;;6.00;;
29686;SDS011;16599;47.078;15.536;2022-10-26T14:46:16;13.82;;;6.63;;
29686;SDS011;16599;47.078;15.536;2022-10-26T14:48:51;10.48;;;5.88;;
29686;SDS011;16599;47.078;15.536;2022-10-26T14:51:27;8.77;;;5.65;;
29686;SDS011;16599;47.078;15.536;2022-10-26T14:53:56;12.77;;;5.00;;
29686;SDS011;16599;47.078;15.536;2022-10-26T14:56:27;10.43;;;4.35;;
29686;SDS011;16599;47.078;15.536;2022-10-26T15:04:35;10.80;;;4.38;;
29686;SDS011;16599;47.078;15.536;2022-10-26T15:09:38;9.25;;;5.47;;
29686;SDS011;16599;47.078;15.536;2022-10-26T15:14:54;11.25;;;5.30;;
29686;SDS011;16599;47.078;15.536;2022-10-26T15:17:34;15.57;;;5.57;;
29686;SDS011;16599;47.078;15.536;2022-10-26T15:20:05;21.88;;;6.65;;
29686;SDS011;16599;47.078;15.536;2022-10-26T15:22:39;14.73;;;5.88;;
29686;SDS011;16599;47.078;15.536;2022-10-26T15:25:12;8.48;;;5.32;;
29686;SDS011;16599;47.078;15.536;2022-10-26T15:27:46;15.35;;;4.85;;
29686;SDS011;16599;47.078;15.536;2022-10-26T15:30:19;12.80;;;4.85;;
29686;SDS011;16599;47.078;15.536;2022-10-26T15:32:51;8.15;;;4.75;;
29686;SDS011;16599;47.078;15.536;2022-10-26T15:35:21;13.38;;;5.53;;
29686;SDS011;16599;47.078;15.536;2022-10-26T15:37:53;17.52;;;5.32;;
29686;SDS011;16599;47.078;15.536;2022-10-26T15:40:23;6.70;;;4.72;;
29686;SDS011;16599;47.078;15.536;2022-10-26T15:42:52;8.95;;;4.90;;
29686;SDS011;16599;47.078;15.536;2022-10-26T15:47:48;9.80;;;4.60;;
29686;SDS011;16599;47.078;15.536;2022-10-26T15:50:21;9.00;;;4.40;;
29686;SDS011;16599;47.078;15.536;2022-10-26T15:52:55;12.90;;;5.55;;
29686;SDS011;16599;47.078;15.536;2022-10-26T15:55:30;11.10;;;5.20;;
29686;SDS011;16599;47.078;15.536;2022-10-26T15:57:57;29.58;;;13.55;;
29686;SDS011;16599;47.078;15.536;2022-10-26T16:00:24;21.33;;;10.60;;
29686;SDS011;16599;47.078;15.536;2022-10-26T16:02:51;8.38;;;5.55;;
29686;SDS011;16599;47.078;15.536;2022-10-26T16:05:18;8.80;;;5.25;;
29686;SDS011;16599;47.078;15.536;2022-10-26T16:07:45;10.98;;;6.00;;
29686;SDS011;16599;47.078;15.536;2022-10-26T16:10:16;13.65;;;5.53;;
29686;SDS011;16599;47.078;15.536;2022-10-26T16:12:50;10.48;;;5.68;;
29686;SDS011;16599;47.078;15.536;2022-10-26T16:15:18;9.30;;;5.70;;
29686;SDS011;16599;47.078;15.536;2022-10-26T16:17:47;12.13;;;6.05;;
29686;SDS011;16599;47.078;15.536;2022-10-26T16:20:19;9.57;;;6.00;;
29686;SDS011;16599;47.078;15.536;2022-10-26T16:22:48;10.38;;;6.13;;
29686;SDS011;16599;47.078;15.536;2022-10-26T16:25:19;14.30;;;7.03;;
29686;SDS011;16599;47.078;15.536;2022-10-26T16:27:50;18.10;;;7.15;;
29686;SDS011;16599;47.078;15.536;2022-10-26T16:30:18;12.15;;;6.60;;
29686;SDS011;16599;47.078;15.536;2022-10-26T16:32:46;15.90;;;7.10;;
29686;SDS011;16599;47.078;15.536;2022-10-26T16:35:13;16.05;;;6.22;;
29686;SDS011;16599;47.078;15.536;2022-10-26T16:37:40;9.88;;;6.20;;
29686;SDS011;16599;47.078;15.536;2022-10-26T16:40:08;7.13;;;5.90;;
29686;SDS011;16599;47.078;15.536;2022-10-26T16:42:35;16.65;;;5.97;;
29686;SDS011;16599;47.078;15.536;2022-10-26T16:45:02;16.85;;;6.50;;
29686;SDS011;16599;47.078;15.536;2022-10-26T16:47:31;18.40;;;6.40;;
29686;SDS011;16599;47.078;15.536;2022-10-26T16:50:01;12.00;;;5.75;;
29686;SDS011;16599;47.078;15.536;2022-10-26T16:52:28;17.90;;;7.15;;
29686;SDS011;16599;47.078;15.536;2022-10-26T16:54:55;12.30;;;6.40;;
29686;SDS011;16599;47.078;15.536;2022-10-26T16:57:22;12.68;;;6.07;;
29686;SDS011;16599;47.078;15.536;2022-10-26T16:59:49;16.25;;;6.70;;
29686;SDS011;16599;47.078;15.536;2022-10-26T17:02:16;14.23;;;5.75;;
29686;SDS011;16599;47.078;15.536;2022-10-26T17:04:43;11.98;;;6.03;;
29686;SDS011;16599;47.078;15.536;2022-10-26T17:07:10;14.82;;;6.07;;
29686;SDS011;16599;47.078;15.536;2022-10-26T17:09:37;14.65;;;7.40;;
29686;SDS011;16599;47.078;15.536;2022-10-26T17:12:04;11.40;;;6.10;;
29686;SDS011;16599;47.078;15.536;2022-10-26T17:14:31;28.98;;;6.90;;
29686;SDS011;16599;47.078;15.536;2022-10-26T17:16:58;15.18;;;6.72;;
29686;SDS011;16599;47.078;15.536;2022-10-26T17:19:25;16.13;;;6.05;;
29686;SDS011;16599;47.078;15.536;2022-10-26T17:21:51;13.68;;;7.10;;
29686;SDS011;16599;47.078;15.536;2022-10-26T17:24:18;18.27;;;6.38;;